createdAt,value
2022-12-24T00:00:17.091Z,97853.31
2022-12-24T00:02:19.624Z,97851.41
2022-12-24T00:04:21.151Z,97850.59
2022-12-24T00:06:23.927Z,97855.81
2022-12-24T00:08:25.651Z,97850.63
2022-12-24T00:10:30.514Z,97854.75
2022-12-24T00:12:32.272Z,97855.59
2022-12-24T00:14:33.861Z,97850.38
2022-12-24T00:16:35.618Z,97849.56
2022-12-24T00:18:43.333Z,97856.97
2022-12-24T00:20:48.395Z,97867.41
2022-12-24T00:22:52.876Z,97870.41
2022-12-24T00:24:54.539Z,97869.06
2022-12-24T00:26:58.898Z,97875.09
2022-12-24T00:29:00.799Z,97872.66
2022-12-24T00:31:12.492Z,97867.19
2022-12-24T00:33:19.528Z,97866.38
2022-12-24T00:35:25.847Z,97876.25
2022-12-24T00:37:27.346Z,97874.34
2022-12-24T00:39:28.903Z,97868.31
2022-12-24T00:41:33.497Z,97876.78
2022-12-24T00:43:35.432Z,97869.41
2022-12-24T00:45:39.810Z,97872.97
2022-12-24T00:47:41.677Z,97869.41
2022-12-24T00:49:43.313Z,97865.84
2022-12-24T00:51:44.829Z,97870.22
2022-12-24T00:53:46.607Z,97872.66
2022-12-24T00:55:48.312Z,97881.69
2022-12-24T00:57:49.902Z,97880.06
2022-12-24T00:59:51.381Z,97889.03
2022-12-24T01:01:53.123Z,97882.75
2022-12-24T01:04:21.606Z,97893.69
2022-12-24T01:06:23.156Z,97894.22
2022-12-24T01:08:24.707Z,97900.81
2022-12-24T01:10:26.325Z,97903.03
2022-12-24T01:12:30.971Z,97917.50
2022-12-24T01:14:32.579Z,97916.72
2022-12-24T01:16:34.372Z,97922.47
2022-12-24T01:18:35.956Z,97920.03
2022-12-24T01:20:37.914Z,97926.84
2022-12-24T01:22:39.536Z,97922.47
2022-12-24T01:24:41.828Z,97919.97
2022-12-24T01:26:45.574Z,97924.09
2022-12-24T01:28:47.202Z,97927.38
2022-12-24T01:30:49.093Z,97940.25
2022-12-24T01:32:50.692Z,97937.81
2022-12-24T01:34:53.153Z,97933.41
2022-12-24T01:36:56.699Z,97939.19
2022-12-24T01:38:58.367Z,97940.28
2022-12-24T01:41:18.290Z,97934.56
2022-12-24T01:43:24.851Z,97940.03
2022-12-24T01:45:43.926Z,97946.34
2022-12-24T01:47:48.013Z,97956.50
2022-12-24T01:50:02.963Z,97958.69
2022-12-24T01:52:14.823Z,97959.50
2022-12-24T01:54:25.603Z,97968.84
2022-12-24T01:56:30.705Z,97962.28
2022-12-24T01:58:36.104Z,97959.53
2022-12-24T02:00:44.763Z,97966.91
2022-12-24T02:02:48.453Z,97972.16
2022-12-24T02:05:05.072Z,97978.72
2022-12-24T02:07:06.812Z,97969.44
2022-12-24T02:09:11.161Z,97974.94
2022-12-24T02:11:20.178Z,97979.56
2022-12-24T02:13:26.962Z,97976.53
2022-12-24T02:15:38.167Z,97989.16
2022-12-24T02:17:59.253Z,97981.50
2022-12-24T02:20:15.362Z,97985.38
2022-12-24T02:22:38.402Z,97988.38
2022-12-24T02:25:04.616Z,98000.13
2022-12-24T02:27:09.994Z,98001.50
2022-12-24T02:29:34.410Z,98003.69
2022-12-24T02:31:43.193Z,98005.31
2022-12-24T02:33:59.803Z,98001.50
2022-12-24T02:36:24.344Z,98009.44
2022-12-24T02:38:31.618Z,98014.13
2022-12-24T02:40:51.122Z,98023.97
2022-12-24T02:42:58.507Z,98024.81
2022-12-24T02:45:05.462Z,98028.63
2022-12-24T02:47:10.075Z,98029.44
2022-12-24T02:49:14.677Z,98029.19
2022-12-24T02:51:16.906Z,98040.41
2022-12-24T02:53:18.433Z,98030.84
2022-12-24T02:55:43.496Z,98041.78
2022-12-24T02:57:56.631Z,98034.41
2022-12-24T03:00:15.484Z,98037.69
2022-12-24T03:02:43.569Z,98044.53
2022-12-24T03:05:08.662Z,98048.66
2022-12-24T03:07:21.262Z,98065.34
2022-12-24T03:09:32.560Z,98062.88
2022-12-24T03:11:38.691Z,98062.03
2022-12-24T03:13:42.541Z,98067.50
2022-12-24T03:15:46.186Z,98070.53
2022-12-24T03:17:52.002Z,98084.19
2022-12-24T03:19:55.051Z,98080.94
2022-12-24T03:21:59.889Z,98082.84
2022-12-24T03:24:02.097Z,98082.00
2022-12-24T03:26:10.964Z,98076.53
2022-12-24T03:28:17.622Z,98075.47
2022-12-24T03:30:20.482Z,98075.19
2022-12-24T03:32:54.476Z,98074.66
2022-12-24T03:34:59.171Z,98065.34
2022-12-24T03:37:00.884Z,98083.69
2022-12-24T03:39:02.331Z,98094.31
2022-12-24T03:41:04.345Z,98093.50
2022-12-24T03:43:05.887Z,98102.00
2022-12-24T03:45:08.223Z,98103.63
2022-12-24T03:47:09.729Z,98109.66
2022-12-24T03:49:11.309Z,98105.81
2022-12-24T03:51:24.728Z,98117.31
2022-12-24T03:53:29.343Z,98126.59
2022-12-24T03:55:30.912Z,98125.22
2022-12-24T03:57:32.589Z,98125.22
2022-12-24T03:59:35.709Z,98130.69
2022-12-24T04:01:37.522Z,98133.72
2022-12-24T04:03:39.475Z,98130.41
2022-12-24T04:05:41.474Z,98136.44
2022-12-24T04:07:43.140Z,98135.63
2022-12-24T04:09:44.608Z,98145.44
2022-12-24T04:11:46.401Z,98152.28
2022-12-24T04:13:47.819Z,98156.66
2022-12-24T04:16:21.676Z,98156.13
2022-12-24T04:18:23.168Z,98150.66
2022-12-24T04:20:24.745Z,98151.75
2022-12-24T04:22:26.722Z,98158.88
2022-12-24T04:24:28.225Z,98153.66
2022-12-24T04:26:30.093Z,98157.22
2022-12-24T04:28:33.891Z,98166.25
2022-12-24T04:30:35.560Z,98169.25
2022-12-24T04:32:37.180Z,98168.97
2022-12-24T04:34:39.520Z,98173.91
2022-12-24T04:36:41.062Z,98172.78
2022-12-24T04:38:46.375Z,98174.44
2022-12-24T04:41:10.679Z,98170.88
2022-12-24T04:43:14.794Z,98177.19
2022-12-24T04:45:17.571Z,98168.16
2022-12-24T04:47:19.187Z,98176.34
2022-12-24T04:49:20.674Z,98175.28
2022-12-24T04:51:28.808Z,98179.63
2022-12-24T04:53:32.013Z,98181.28
2022-12-24T04:55:33.741Z,98189.75
2022-12-24T04:57:35.747Z,98185.09
2022-12-24T04:59:37.248Z,98184.28
2022-12-24T05:01:38.849Z,98185.09
2022-12-24T05:03:40.758Z,98190.56
2022-12-24T05:05:45.349Z,98187.81
2022-12-24T05:07:47.856Z,98194.41
2022-12-24T05:09:49.459Z,98185.09
2022-12-24T05:11:50.976Z,98190.56
2022-12-24T05:13:52.491Z,98204.22
2022-12-24T05:15:54.432Z,98202.59
2022-12-24T05:17:56.030Z,98203.44
2022-12-24T05:19:57.583Z,98204.22
2022-12-24T05:22:17.576Z,98215.16
2022-12-24T05:24:37.592Z,98209.16
2022-12-24T05:26:53.277Z,98226.66
2022-12-24T05:28:57.176Z,98219.25
2022-12-24T05:30:58.900Z,98216.28
2022-12-24T05:33:00.481Z,98217.34
2022-12-24T05:35:01.950Z,98225.03
2022-12-24T05:37:03.811Z,98219.00
2022-12-24T05:39:11.381Z,98226.94
2022-12-24T05:41:15.507Z,98223.38
2022-12-24T05:43:17.351Z,98237.03
2022-12-24T05:45:21.032Z,98237.31
2022-12-24T05:47:24.919Z,98229.41
2022-12-24T05:49:28.640Z,98233.75
2022-12-24T05:51:30.197Z,98231.31
2022-12-24T05:53:32.283Z,98240.34
2022-12-24T05:55:37.522Z,98233.75
2022-12-24T05:57:41.152Z,98235.66
2022-12-24T05:59:42.728Z,98234.88
2022-12-24T06:01:47.383Z,98246.88
2022-12-24T06:03:52.140Z,98241.13
2022-12-24T06:06:01.134Z,98243.06
2022-12-24T06:08:02.816Z,98247.44
2022-12-24T06:10:05.430Z,98251.28
2022-12-24T06:12:07.165Z,98252.34
2022-12-24T06:14:08.919Z,98252.34
2022-12-24T06:16:18.895Z,98251.28
2022-12-24T06:18:20.468Z,98243.31
2022-12-24T06:20:22.077Z,98242.50
2022-12-24T06:22:23.537Z,98241.69
2022-12-24T06:24:25.343Z,98235.41
2022-12-24T06:26:27.216Z,98252.88
2022-12-24T06:28:29.986Z,98249.31
2022-12-24T06:30:31.734Z,98253.16
2022-12-24T06:32:35.685Z,98250.97
2022-12-24T06:34:46.349Z,98249.91
2022-12-24T06:36:48.035Z,98253.72
2022-12-24T06:38:51.567Z,98260.25
2022-12-24T06:40:53.164Z,98259.47
2022-12-24T06:42:54.789Z,98259.47
2022-12-24T06:45:02.244Z,98260.53
2022-12-24T06:47:15.434Z,98261.63
2022-12-24T06:49:17.050Z,98271.47
2022-12-24T06:51:22.108Z,98270.41
2022-12-24T06:53:23.703Z,98273.94
2022-12-24T06:55:25.601Z,98290.63
2022-12-24T06:57:27.595Z,98282.13
2022-12-24T06:59:31.827Z,98281.34
2022-12-24T07:01:33.674Z,98279.16
2022-12-24T07:03:35.843Z,98288.97
2022-12-24T07:05:37.472Z,98279.97
2022-12-24T07:07:43.245Z,98277.78
2022-12-24T07:09:44.770Z,98293.38
2022-12-24T07:11:48.503Z,98299.38
2022-12-24T07:13:50.124Z,98292.28
2022-12-24T07:16:02.727Z,98300.47
2022-12-24T07:18:04.459Z,98299.38
2022-12-24T07:20:10.523Z,98298.28
2022-12-24T07:22:16.259Z,98306.75
2022-12-24T07:24:18.115Z,98309.47
2022-12-24T07:26:19.878Z,98313.03
2022-12-24T07:28:27.454Z,98322.06
2022-12-24T07:30:29.865Z,98326.69
2022-12-24T07:32:31.948Z,98330.53
2022-12-24T07:34:33.871Z,98348.56
2022-12-24T07:36:35.578Z,98349.94
2022-12-24T07:38:38.028Z,98346.13
2022-12-24T07:40:39.676Z,98339.28
2022-12-24T07:42:41.214Z,98348.03
2022-12-24T07:44:42.834Z,98341.75
2022-12-24T07:46:44.810Z,98349.13
2022-12-24T07:48:46.471Z,98343.66
2022-12-24T07:50:50.338Z,98351.84
2022-12-24T07:52:53.380Z,98346.38
2022-12-24T07:54:55.435Z,98349.69
2022-12-24T07:56:57.020Z,98352.97
2022-12-24T07:58:58.522Z,98350.25
2022-12-24T08:01:00.252Z,98354.59
2022-12-24T08:03:01.876Z,98351.63
2022-12-24T08:05:03.728Z,98367.19
2022-12-24T08:07:06.793Z,98362.81
2022-12-24T08:09:16.895Z,98371.84
2022-12-24T08:11:18.831Z,98371.59
2022-12-24T08:13:20.299Z,98365.56
2022-12-24T08:15:21.919Z,98368.06
2022-12-24T08:17:28.589Z,98372.16
2022-12-24T08:19:33.751Z,98376.28
2022-12-24T08:21:36.287Z,98366.97
2022-12-24T08:23:39.204Z,98378.19
2022-12-24T08:26:04.115Z,98380.66
2022-12-24T08:28:05.986Z,98387.25
2022-12-24T08:30:08.298Z,98398.72
2022-12-24T08:32:09.877Z,98391.91
2022-12-24T08:34:13.223Z,98387.56
2022-12-24T08:36:14.914Z,98384.25
2022-12-24T08:38:23.321Z,98379.91
2022-12-24T08:40:25.015Z,98391.94
2022-12-24T08:42:29.757Z,98394.72
2022-12-24T08:44:31.355Z,98385.97
2022-12-24T08:46:33.153Z,98388.16
2022-12-24T08:48:35.246Z,98390.09
2022-12-24T08:50:40.198Z,98401.31
2022-12-24T08:52:41.873Z,98391.47
2022-12-24T08:54:45.749Z,98403.78
2022-12-24T08:56:47.816Z,98404.31
2022-12-24T08:58:50.038Z,98421.03
2022-12-24T09:00:51.823Z,98407.59
2022-12-24T09:02:53.570Z,98405.16
2022-12-24T09:04:55.256Z,98406.25
2022-12-24T09:06:56.888Z,98407.34
2022-12-24T09:08:58.987Z,98409.28
2022-12-24T09:11:10.232Z,98407.91
2022-12-24T09:13:14.903Z,98419.41
2022-12-24T09:15:19.551Z,98406.25
2022-12-24T09:17:21.684Z,98414.75
2022-12-24T09:19:25.464Z,98414.75
2022-12-24T09:21:30.527Z,98419.41
2022-12-24T09:23:36.991Z,98436.66
2022-12-24T09:25:45.245Z,98434.19
2022-12-24T09:27:47.276Z,98442.41
2022-12-24T09:29:49.093Z,98444.31
2022-12-24T09:31:50.893Z,98439.38
2022-12-24T09:33:55.742Z,98451.44
2022-12-24T09:35:57.601Z,98448.13
2022-12-24T09:38:04.814Z,98444.31
2022-12-24T09:40:18.320Z,98455.53
2022-12-24T09:42:42.870Z,98454.44
2022-12-24T09:44:51.686Z,98470.34
2022-12-24T09:46:54.714Z,98466.50
2022-12-24T09:49:03.917Z,98464.03
2022-12-24T09:51:11.884Z,98454.44
2022-12-24T09:53:22.263Z,98467.88
2022-12-24T09:55:50.732Z,98468.13
2022-12-24T09:57:54.519Z,98471.69
2022-12-24T09:59:56.123Z,98474.72
2022-12-24T10:01:57.922Z,98467.88
2022-12-24T10:04:13.766Z,98474.75
2022-12-24T10:06:24.967Z,98479.66
2022-12-24T10:08:36.623Z,98475.53
2022-12-24T10:11:03.355Z,98472.53
2022-12-24T10:13:48.656Z,98478.25
2022-12-24T10:16:02.238Z,98478.81
2022-12-24T10:18:03.951Z,98484.56
2022-12-24T10:20:26.941Z,98493.06
2022-12-24T10:22:48.880Z,98482.63
2022-12-24T10:25:21.079Z,98492.75
2022-12-24T10:27:29.028Z,98496.03
2022-12-24T10:29:36.818Z,98491.66
2022-12-24T10:31:52.552Z,98493.03
2022-12-24T10:33:59.388Z,98492.72
2022-12-24T10:36:09.881Z,98505.06
2022-12-24T10:38:17.325Z,98501.25
2022-12-24T10:40:42.753Z,98493.53
2022-12-24T10:42:50.659Z,98500.41
2022-12-24T10:45:03.105Z,98497.34
2022-12-24T10:47:10.601Z,98489.94
2022-12-24T10:49:17.806Z,98500.66
2022-12-24T10:51:51.240Z,98502.28
2022-12-24T10:54:00.784Z,98499.28
2022-12-24T10:56:06.099Z,98502.56
2022-12-24T10:58:15.824Z,98501.44
2022-12-24T11:00:35.793Z,98504.47
2022-12-24T11:02:40.129Z,98509.66
2022-12-24T11:04:56.005Z,98515.72
2022-12-24T11:07:04.480Z,98515.97
2022-12-24T11:09:21.551Z,98514.03
2022-12-24T11:11:23.989Z,98517.06
2022-12-24T11:13:39.656Z,98517.06
2022-12-24T11:15:41.594Z,98527.47
2022-12-24T11:18:03.980Z,98514.03
2022-12-24T11:20:17.208Z,98516.47
2022-12-24T11:22:21.284Z,98520.06
2022-12-24T11:24:32.461Z,98521.69
2022-12-24T11:26:34.907Z,98523.31
2022-12-24T11:28:37.206Z,98528.25
2022-12-24T11:30:39.104Z,98516.44
2022-12-24T11:33:10.843Z,98500.81
2022-12-24T11:35:24.135Z,98506.28
2022-12-24T11:37:28.912Z,98512.88
2022-12-24T11:39:39.135Z,98519.75
2022-12-24T11:41:41.137Z,98512.03
2022-12-24T11:43:47.588Z,98504.03
2022-12-24T11:45:52.924Z,98507.88
2022-12-24T11:47:56.278Z,98503.44
2022-12-24T11:50:37.614Z,98500.44
2022-12-24T11:52:43.136Z,98514.72
2022-12-24T11:55:18.575Z,98510.56
2022-12-24T11:57:29.069Z,98502.03
2022-12-24T11:59:38.100Z,98497.91
2022-12-24T12:01:54.250Z,98505.06
2022-12-24T12:04:09.603Z,98507.28
2022-12-24T12:06:29.721Z,98499.03
2022-12-24T12:08:32.949Z,98503.13
2022-12-24T12:10:39.186Z,98502.56
2022-12-24T12:12:45.447Z,98503.38
2022-12-24T12:15:12.704Z,98501.19
2022-12-24T12:17:43.086Z,98498.44
2022-12-24T12:20:32.744Z,98502.81
2022-12-24T12:22:44.854Z,98506.91
2022-12-24T12:24:59.315Z,98512.13
2022-12-24T12:27:20.225Z,98503.91
2022-12-24T12:29:31.085Z,98512.66
2022-12-24T12:31:45.179Z,98518.13
2022-12-24T12:33:51.348Z,98519.75
2022-12-24T12:35:55.723Z,98526.91
2022-12-24T12:38:01.351Z,98531.84
2022-12-24T12:40:03.926Z,98526.88
2022-12-24T12:42:11.836Z,98527.69
2022-12-24T12:44:34.221Z,98523.56
2022-12-24T12:46:38.559Z,98529.03
2022-12-24T12:48:40.413Z,98522.38
2022-12-24T12:50:48.604Z,98524.28
2022-12-24T12:52:59.208Z,98519.53
2022-12-24T12:55:24.174Z,98518.69
2022-12-24T12:57:33.072Z,98527.72
2022-12-24T12:59:49.190Z,98527.13
2022-12-24T13:01:56.851Z,98525.47
2022-12-24T13:04:20.621Z,98530.38
2022-12-24T13:06:40.505Z,98522.38
2022-12-24T13:09:02.990Z,98530.31
2022-12-24T13:11:42.412Z,98532.28
2022-12-24T13:14:22.208Z,98545.44
2022-12-24T13:16:46.574Z,98534.44
2022-12-24T13:18:53.875Z,98531.41
2022-12-24T13:20:55.592Z,98528.38
2022-12-24T13:23:12.795Z,98531.41
2022-12-24T13:25:23.535Z,98546.25
2022-12-24T13:27:28.184Z,98540.50
2022-12-24T13:29:38.727Z,98542.41
2022-12-24T13:31:40.544Z,98535.25
2022-12-24T13:33:41.973Z,98537.75
2022-12-24T13:36:18.947Z,98530.59
2022-12-24T13:38:31.228Z,98529.75
2022-12-24T13:40:36.015Z,98530.03
2022-12-24T13:42:49.978Z,98530.84
2022-12-24T13:45:30.129Z,98526.44
2022-12-24T13:47:32.736Z,98540.72
2022-12-24T13:49:40.931Z,98542.38
2022-12-24T13:51:47.205Z,98538.78
2022-12-24T13:53:49.662Z,98541.25
2022-12-24T13:55:56.976Z,98555.31
2022-12-24T13:58:02.899Z,98547.56
2022-12-24T14:00:28.256Z,98543.78
2022-12-24T14:02:35.899Z,98553.66
2022-12-24T14:04:42.189Z,98556.69
2022-12-24T14:06:51.652Z,98548.75
2022-12-24T14:08:57.905Z,98561.16
2022-12-24T14:11:05.814Z,98561.72
2022-12-24T14:13:39.098Z,98565.03
2022-12-24T14:16:03.159Z,98562.63
2022-12-24T14:18:05.700Z,98566.16
2022-12-24T14:20:10.371Z,98574.19
2022-12-24T14:22:13.819Z,98572.00
2022-12-24T14:24:27.605Z,98567.63
2022-12-24T14:26:44.489Z,98566.03
2022-12-24T14:28:56.929Z,98572.41
2022-12-24T14:31:04.219Z,98571.63
2022-12-24T14:33:05.994Z,98570.25
2022-12-24T14:35:13.284Z,98568.38
2022-12-24T14:37:16.744Z,98580.75
2022-12-24T14:39:22.338Z,98581.56
2022-12-24T14:41:41.081Z,98593.97
2022-12-24T14:44:09.264Z,98597.88
2022-12-24T14:46:41.420Z,98592.66
2022-12-24T14:49:06.947Z,98593.50
2022-12-24T14:51:26.863Z,98601.22
2022-12-24T14:53:49.212Z,98602.59
2022-12-24T14:55:51.444Z,98596.84
2022-12-24T14:58:26.016Z,98605.38
2022-12-24T15:00:27.731Z,98596.28
2022-12-24T15:02:39.588Z,98599.88
2022-12-24T15:04:41.294Z,98603.19
2022-12-24T15:06:56.692Z,98601.00
2022-12-24T15:08:58.471Z,98604.88
2022-12-24T15:11:03.800Z,98607.88
2022-12-24T15:13:21.596Z,98607.38
2022-12-24T15:15:24.391Z,98616.69
2022-12-24T15:17:27.381Z,98613.72
2022-12-24T15:19:33.649Z,98610.69
2022-12-24T15:21:44.034Z,98614.81
2022-12-24T15:23:49.199Z,98618.66
2022-12-24T15:25:53.304Z,98625.53
2022-12-24T15:27:55.586Z,98624.16
2022-12-24T15:29:58.047Z,98625.78
2022-12-24T15:32:04.873Z,98618.94
2022-12-24T15:34:27.399Z,98622.81
2022-12-24T15:36:37.616Z,98635.41
2022-12-24T15:38:53.858Z,98637.63
2022-12-24T15:40:56.443Z,98634.03
2022-12-24T15:42:58.195Z,98642.56
2022-12-24T15:45:07.595Z,98649.41
2022-12-24T15:47:17.982Z,98653.00
2022-12-24T15:49:19.832Z,98651.34
2022-12-24T15:51:24.524Z,98658.19
2022-12-24T15:53:31.130Z,98645.84
2022-12-24T15:55:41.146Z,98650.50
2022-12-24T15:57:43.493Z,98652.72
2022-12-24T15:59:52.770Z,98656.53
2022-12-24T16:02:35.720Z,98655.16
2022-12-24T16:04:38.847Z,98665.59
2022-12-24T16:07:06.809Z,98662.84
2022-12-24T16:09:42.951Z,98674.94
2022-12-24T16:11:44.667Z,98672.19
2022-12-24T16:13:59.397Z,98674.34
2022-12-24T16:16:04.342Z,98672.97
2022-12-24T16:18:06.084Z,98671.88
2022-12-24T16:20:19.836Z,98666.38
2022-12-24T16:22:38.323Z,98669.94
2022-12-24T16:24:43.030Z,98668.03
2022-12-24T16:26:44.643Z,98667.72
2022-12-24T16:28:46.414Z,98669.34
2022-12-24T16:30:51.312Z,98673.19
2022-12-24T16:32:53.231Z,98672.34
2022-12-24T16:34:55.086Z,98673.16
2022-12-24T16:36:57.875Z,98678.34
2022-12-24T16:39:18.239Z,98679.16
2022-12-24T16:41:21.050Z,98670.38
2022-12-24T16:43:43.460Z,98672.81
2022-12-24T16:45:47.300Z,98678.56
2022-12-24T16:47:49.285Z,98689.50
2022-12-24T16:49:51.826Z,98690.56
2022-12-24T16:51:53.323Z,98692.19
2022-12-24T16:53:54.986Z,98687.78
2022-12-24T16:55:56.813Z,98694.34
2022-12-24T16:58:01.209Z,98701.94
2022-12-24T17:00:07.453Z,98698.09
2022-12-24T17:02:15.032Z,98701.88
2022-12-24T17:04:20.049Z,98697.22
2022-12-24T17:06:21.704Z,98703.19
2022-12-24T17:08:23.176Z,98707.28
2022-12-24T17:10:26.753Z,98703.44
2022-12-24T17:12:28.459Z,98697.66
2022-12-24T17:14:30.143Z,98696.56
2022-12-24T17:16:31.821Z,98698.72
2022-12-24T17:18:33.331Z,98706.59
2022-12-24T17:20:34.922Z,98704.97
2022-12-24T17:22:36.798Z,98702.75
2022-12-24T17:24:38.485Z,98701.63
2022-12-24T17:26:43.161Z,98705.16
2022-12-24T17:28:44.616Z,98711.97
2022-12-24T17:30:46.904Z,98709.75
2022-12-24T17:32:48.526Z,98723.69
2022-12-24T17:34:51.334Z,98717.13
2022-12-24T17:36:54.878Z,98719.06
2022-12-24T17:38:56.816Z,98719.06
2022-12-24T17:41:02.929Z,98719.31
2022-12-24T17:43:04.837Z,98717.41
2022-12-24T17:45:06.781Z,98722.59
2022-12-24T17:47:08.613Z,98723.44
2022-12-24T17:49:10.177Z,98728.91
2022-12-24T17:51:18.209Z,98722.34
2022-12-24T17:53:19.847Z,98724.00
2022-12-24T17:55:23.772Z,98727.31
2022-12-24T17:57:25.364Z,98728.69
2022-12-24T17:59:28.620Z,98716.41
2022-12-24T18:01:33.041Z,98723.22
2022-12-24T18:03:34.856Z,98718.81
2022-12-24T18:05:36.728Z,98728.69
2022-12-24T18:07:38.307Z,98727.88
2022-12-24T18:09:40.001Z,98725.13
2022-12-24T18:11:44.732Z,98734.41
2022-12-24T18:13:47.063Z,98734.41
2022-12-24T18:15:48.699Z,98737.97
2022-12-24T18:17:53.747Z,98735.75
2022-12-24T18:19:55.903Z,98742.34
2022-12-24T18:22:00.286Z,98742.03
2022-12-24T18:24:02.231Z,98747.44
2022-12-24T18:26:05.707Z,98750.13
2022-12-24T18:28:07.292Z,98760.53
2022-12-24T18:30:10.473Z,98764.28
2022-12-24T18:32:16.786Z,98759.09
2022-12-24T18:34:18.421Z,98756.59
2022-12-24T18:36:21.065Z,98751.66
2022-12-24T18:38:22.651Z,98762.28
2022-12-24T18:40:24.672Z,98762.28
2022-12-24T18:42:28.996Z,98765.28
2022-12-24T18:44:33.646Z,98773.16
2022-12-24T18:46:39.225Z,98770.94
2022-12-24T18:48:41.538Z,98767.66
2022-12-24T18:50:43.235Z,98768.72
2022-12-24T18:52:44.789Z,98779.91
2022-12-24T18:54:48.850Z,98771.16
2022-12-24T18:56:51.797Z,98774.72
2022-12-24T18:58:59.101Z,98775.22
2022-12-24T19:01:02.786Z,98775.47
2022-12-24T19:03:08.362Z,98772.19
2022-12-24T19:05:16.438Z,98766.72
2022-12-24T19:07:25.645Z,98766.47
2022-12-24T19:09:32.040Z,98766.19
2022-12-24T19:11:35.133Z,98758.28
2022-12-24T19:13:37.178Z,98754.44
2022-12-24T19:15:41.900Z,98746.56
2022-12-24T19:17:44.737Z,98739.19
2022-12-24T19:19:50.995Z,98734.50
2022-12-24T19:21:52.608Z,98738.09
2022-12-24T19:23:54.575Z,98738.09
2022-12-24T19:25:56.454Z,98744.88
2022-12-24T19:27:58.123Z,98750.63
2022-12-24T19:29:59.734Z,98752.53
2022-12-24T19:32:05.055Z,98760.41
2022-12-24T19:34:06.946Z,98755.72
2022-12-24T19:36:11.086Z,98759.78
2022-12-24T19:38:12.807Z,98761.69
2022-12-24T19:40:16.992Z,98770.72
2022-12-24T19:42:20.406Z,98774.28
2022-12-24T19:44:22.075Z,98782.16
2022-12-24T19:46:26.903Z,98778.63
2022-12-24T19:48:28.528Z,98779.19
2022-12-24T19:50:30.422Z,98775.34
2022-12-24T19:52:32.081Z,98783.56
2022-12-24T19:54:33.718Z,98783.56
2022-12-24T19:56:37.060Z,98793.41
2022-12-24T19:58:38.836Z,98790.97
2022-12-24T20:00:40.497Z,98797.22
2022-12-24T20:02:42.051Z,98795.59
2022-12-24T20:04:43.681Z,98800.50
2022-12-24T20:06:46.360Z,98794.44
2022-12-24T20:08:48.297Z,98805.13
2022-12-24T20:10:49.993Z,98802.41
2022-12-24T20:12:51.770Z,98805.63
2022-12-24T20:14:57.200Z,98808.38
2022-12-24T20:17:01.614Z,98810.25
2022-12-24T20:19:06.840Z,98816.84
2022-12-24T20:21:11.169Z,98831.56
2022-12-24T20:23:12.829Z,98829.91
2022-12-24T20:25:14.553Z,98834.56
2022-12-24T20:27:19.335Z,98832.63
2022-12-24T20:29:20.881Z,98840.03
2022-12-24T20:31:26.069Z,98839.19
2022-12-24T20:33:27.563Z,98846.28
2022-12-24T20:35:29.279Z,98840.81
2022-12-24T20:37:32.937Z,98848.78
2022-12-24T20:39:36.345Z,98849.84
2022-12-24T20:41:37.957Z,98851.75
2022-12-24T20:43:47.504Z,98854.75
2022-12-24T20:45:55.140Z,98852.84
2022-12-24T20:47:57.451Z,98856.94
2022-12-24T20:49:59.011Z,98855.03
2022-12-24T20:52:00.696Z,98857.75
2022-12-24T20:54:05.249Z,98854.44
2022-12-24T20:56:07.094Z,98852.78
2022-12-24T20:58:11.782Z,98852.78
2022-12-24T21:00:14.193Z,98856.59
2022-12-24T21:02:19.437Z,98851.13
2022-12-24T21:04:21.195Z,98850.28
2022-12-24T21:06:24.474Z,98844.84
2022-12-24T21:08:25.978Z,98837.72
2022-12-24T21:10:33.867Z,98834.72
2022-12-24T21:12:58.894Z,98825.13
2022-12-24T21:15:00.556Z,98816.09
2022-12-24T21:17:02.670Z,98815.53
2022-12-24T21:19:11.387Z,98816.66
2022-12-24T21:21:13.075Z,98820.19
2022-12-24T21:23:14.678Z,98817.16
2022-12-24T21:25:22.565Z,98811.13
2022-12-24T21:27:24.493Z,98811.63
2022-12-24T21:29:26.309Z,98824.09
2022-12-24T21:31:28.183Z,98815.59
2022-12-24T21:33:34.785Z,98817.78
2022-12-24T21:35:40.492Z,98824.31
2022-12-24T21:37:42.269Z,98832.16
2022-12-24T21:39:49.923Z,98828.88
2022-12-24T21:41:51.545Z,98827.22
2022-12-24T21:43:53.232Z,98831.88
2022-12-24T21:45:57.530Z,98825.56
2022-12-24T21:47:59.314Z,98823.66
2022-12-24T21:50:19.650Z,98831.03
2022-12-24T21:52:21.620Z,98839.47
2022-12-24T21:54:23.224Z,98832.34
2022-12-24T21:56:24.791Z,98828.03
2022-12-24T21:58:26.399Z,98824.50
2022-12-24T22:00:30.708Z,98825.91
2022-12-24T22:02:32.648Z,98822.91
2022-12-24T22:04:34.957Z,98830.03
2022-12-24T22:06:55.265Z,98824.56
2022-12-24T22:09:18.541Z,98827.03
2022-12-24T22:11:38.855Z,98822.91
2022-12-24T22:13:42.260Z,98832.16
2022-12-24T22:15:49.815Z,98830.53
2022-12-24T22:17:51.748Z,98831.59
2022-12-24T22:19:56.781Z,98823.91
2022-12-24T22:22:02.169Z,98831.03
2022-12-24T22:24:04.371Z,98829.38
2022-12-24T22:26:17.486Z,98834.16
2022-12-24T22:28:20.011Z,98833.59
2022-12-24T22:30:21.545Z,98824.81
2022-12-24T22:32:23.278Z,98836.81
2022-12-24T22:34:27.649Z,98841.69
2022-12-24T22:36:30.693Z,98843.94
2022-12-24T22:38:33.575Z,98839.03
2022-12-24T22:40:35.631Z,98838.31
2022-12-24T22:42:37.455Z,98838.09
2022-12-24T22:44:39.397Z,98835.91
2022-12-24T22:46:41.012Z,98843.28
2022-12-24T22:48:43.984Z,98839.47
2022-12-24T22:50:45.466Z,98843.63
2022-12-24T22:52:47.104Z,98845.25
2022-12-24T22:54:48.667Z,98833.81
2022-12-24T22:56:50.248Z,98839.56
2022-12-24T22:58:56.469Z,98837.88
2022-12-24T23:00:59.572Z,98837.06
2022-12-24T23:03:01.776Z,98837.63
2022-12-24T23:05:03.722Z,98834.91
2022-12-24T23:07:07.457Z,98829.44
2022-12-24T23:09:12.488Z,98841.19
2022-12-24T23:11:15.223Z,98832.75
2022-12-24T23:13:35.915Z,98835.50
2022-12-24T23:15:39.076Z,98849.16
2022-12-24T23:17:40.849Z,98845.59
2022-12-24T23:19:42.823Z,98849.16
2022-12-24T23:21:44.328Z,98852.13
2022-12-24T23:23:46.697Z,98855.69
2022-12-24T23:25:48.304Z,98853.22
2022-12-24T23:27:52.523Z,98854.28
2022-12-24T23:29:54.024Z,98854.53
2022-12-24T23:31:55.691Z,98852.88
2022-12-24T23:33:57.233Z,98848.25
2022-12-24T23:35:58.907Z,98859.16
2022-12-24T23:38:01.571Z,98863.81
2022-12-24T23:40:04.142Z,98856.44
2022-12-24T23:42:08.565Z,98847.41
2022-12-24T23:44:12.751Z,98847.41
2022-12-24T23:46:15.756Z,98845.75
2022-12-24T23:48:17.803Z,98846.00
2022-12-24T23:50:22.357Z,98838.66
2022-12-24T23:52:24.176Z,98842.72
2022-12-24T23:54:25.832Z,98849.56
2022-12-24T23:56:27.247Z,98853.13
2022-12-24T23:58:29.140Z,98859.41
